createdAt,value
2019-02-15T00:03:21.375Z,31.00
2019-02-15T00:08:26.983Z,33.00
2019-02-15T00:13:30.898Z,33.00
2019-02-15T00:18:39.416Z,34.00
2019-02-15T00:23:49.475Z,34.89
2019-02-15T00:28:59.779Z,36.00
2019-02-15T00:34:11.486Z,36.90
2019-02-15T00:39:22.515Z,35.00
2019-02-15T00:44:32.003Z,37.22
2019-02-15T00:49:36.146Z,39.00
2019-02-15T00:54:44.619Z,38.60
2019-02-15T00:59:53.938Z,37.11
2019-02-15T01:05:04.866Z,37.86
2019-02-15T01:10:10.580Z,33.00
2019-02-15T01:15:19.166Z,33.38
2019-02-15T01:20:28.375Z,34.00
2019-02-15T01:25:36.507Z,35.00
2019-02-15T01:30:47.323Z,36.89
2019-02-15T01:35:56.648Z,35.56
2019-02-15T01:41:01.784Z,36.43
2019-02-15T01:46:08.633Z,34.38
2019-02-15T01:51:12.915Z,35.17
2019-02-15T01:56:22.072Z,31.00
2019-02-15T02:01:31.279Z,34.44
2019-02-15T02:06:37.295Z,34.00
2019-02-15T02:11:41.624Z,34.00
2019-02-15T02:16:51.875Z,33.67
2019-02-15T02:22:01.242Z,34.67
2019-02-15T02:27:09.875Z,37.00
2019-02-15T02:32:19.094Z,34.00
2019-02-15T02:37:29.287Z,33.22
2019-02-15T02:42:38.711Z,37.10
2019-02-15T02:47:49.663Z,32.42
2019-02-15T02:52:58.182Z,34.75
2019-02-15T02:58:03.183Z,35.00
2019-02-15T03:03:13.084Z,35.89
2019-02-15T03:08:16.222Z,33.00
2019-02-15T03:13:23.255Z,34.50
2019-02-15T03:18:27.423Z,31.67
2019-02-15T03:23:36.731Z,34.00
2019-02-15T03:28:41.659Z,33.00
2019-02-15T03:33:49.292Z,32.67
2019-02-15T03:38:55.336Z,32.88
2019-02-15T03:44:06.158Z,34.00
2019-02-15T03:49:11.271Z,33.00
2019-02-15T03:54:21.190Z,35.00
2019-02-15T03:59:31.143Z,33.75
2019-02-15T04:04:39.355Z,34.67
2019-02-15T04:09:47.610Z,38.67
2019-02-15T04:14:52.653Z,34.57
2019-02-15T04:19:59.354Z,32.63
2019-02-15T04:25:10.137Z,33.00
2019-02-15T04:30:14.342Z,39.60
2019-02-15T04:35:24.399Z,35.33
2019-02-15T04:40:29.432Z,38.29
2019-02-15T04:45:37.209Z,33.50
2019-02-15T04:50:48.122Z,36.67
2019-02-15T04:55:58.283Z,33.00
2019-02-15T05:01:02.426Z,35.00
2019-02-15T05:06:09.965Z,34.67
2019-02-15T05:11:16.935Z,36.78
2019-02-15T05:16:23.743Z,32.88
2019-02-15T05:21:30.713Z,32.88
2019-02-15T05:26:37.416Z,34.00
2019-02-15T05:31:42.524Z,35.00
2019-02-15T05:36:46.770Z,36.25
2019-02-15T05:41:50.920Z,35.00
2019-02-15T05:46:55.993Z,35.00
2019-02-15T05:52:01.063Z,35.25
2019-02-15T05:57:10.640Z,42.13
2019-02-15T06:02:20.025Z,33.67
2019-02-15T06:07:30.342Z,34.22
2019-02-15T06:12:39.860Z,37.67
2019-02-15T06:17:48.117Z,32.33
2019-02-15T06:22:52.170Z,33.25
2019-02-15T06:28:00.025Z,33.78
2019-02-15T06:33:05.068Z,38.43
2019-02-15T06:38:12.748Z,33.00
2019-02-15T06:43:16.371Z,37.00
2019-02-15T06:48:27.328Z,37.60
2019-02-15T06:53:31.625Z,35.00
2019-02-15T06:58:45.517Z,35.00
2019-02-15T07:03:48.106Z,34.50
2019-02-15T07:08:55.388Z,35.29
2019-02-15T07:13:59.400Z,34.00
2019-02-15T07:19:06.916Z,35.00
2019-02-15T07:24:11.880Z,33.00
2019-02-15T07:29:18.586Z,31.25
2019-02-15T07:34:27.699Z,33.67
2019-02-15T07:39:36.107Z,34.00
2019-02-15T07:44:39.475Z,35.00
2019-02-15T07:49:47.260Z,38.78
2019-02-15T07:54:58.335Z,35.00
2019-02-15T08:00:12.338Z,33.78
2019-02-15T08:05:20.259Z,34.67
2019-02-15T08:10:25.346Z,31.00
2019-02-15T08:15:36.482Z,31.00
2019-02-15T08:20:40.556Z,33.00
2019-02-15T08:25:48.881Z,32.25
2019-02-15T08:30:57.972Z,31.25
2019-02-15T08:36:06.230Z,32.22
2019-02-15T08:41:11.349Z,32.71
2019-02-15T08:46:20.526Z,32.11
2019-02-15T08:51:26.565Z,33.00
2019-02-15T08:56:35.994Z,34.50
2019-02-15T09:01:44.276Z,35.33
2019-02-15T09:06:54.358Z,33.33
2019-02-15T09:12:03.587Z,31.50
2019-02-15T09:17:12.822Z,31.75
2019-02-15T09:22:17.140Z,32.00
2019-02-15T09:27:26.392Z,29.11
2019-02-15T09:32:31.479Z,28.00
2019-02-15T09:37:39.732Z,31.87
2019-02-15T09:42:48.859Z,31.00
2019-02-15T09:47:53.083Z,30.33
2019-02-15T09:53:01.543Z,28.00
2019-02-15T09:58:08.181Z,31.00
2019-02-15T10:03:13.299Z,27.00
2019-02-15T10:08:20.848Z,27.00
2019-02-15T10:13:28.208Z,26.62
2019-02-15T10:18:37.079Z,24.00
2019-02-15T10:23:44.221Z,24.50
2019-02-15T10:28:49.934Z,26.60
2019-02-15T10:33:58.182Z,23.00
2019-02-15T10:39:05.602Z,26.00
2019-02-15T10:44:15.102Z,27.11
2019-02-15T10:49:25.030Z,19.67
2019-02-15T10:54:30.523Z,18.25
2019-02-15T10:59:34.547Z,22.75
2019-02-15T11:04:37.667Z,21.00
2019-02-15T11:09:44.008Z,20.00
2019-02-15T11:14:52.724Z,22.00
2019-02-15T11:19:59.923Z,23.00
2019-02-15T11:25:09.627Z,23.00
2019-02-15T11:30:17.231Z,24.12
2019-02-15T11:35:26.300Z,22.75
2019-02-15T11:40:34.524Z,23.89
2019-02-15T11:45:41.862Z,21.25
2019-02-15T11:50:50.974Z,23.00
2019-02-15T11:55:58.277Z,19.62
2019-02-15T12:01:03.194Z,24.00
2019-02-15T12:06:07.072Z,19.50
2019-02-15T12:11:15.359Z,21.50
2019-02-15T12:16:24.206Z,21.37
2019-02-15T12:21:31.662Z,23.00
2019-02-15T12:26:39.851Z,23.75
2019-02-15T12:31:44.611Z,22.00
2019-02-15T12:36:49.351Z,28.00
2019-02-15T12:41:58.248Z,22.00
2019-02-15T12:47:14.819Z,22.00
2019-02-15T12:52:18.423Z,21.50
2019-02-15T12:57:23.231Z,20.50
2019-02-15T13:02:31.592Z,20.37
2019-02-15T13:07:40.563Z,25.00
2019-02-15T13:12:49.672Z,22.50
2019-02-15T13:17:54.662Z,15.00
2019-02-15T13:23:03.187Z,20.12
2019-02-15T13:28:07.989Z,19.00
2019-02-15T13:33:16.370Z,17.00
2019-02-15T13:38:25.760Z,17.62
2019-02-15T13:43:30.591Z,18.00
2019-02-15T13:48:34.758Z,20.00
2019-02-15T13:53:38.860Z,22.00
2019-02-15T13:58:48.793Z,20.09
2019-02-15T14:03:57.355Z,16.29
2019-02-15T14:09:02.023Z,18.75
2019-02-15T14:14:07.906Z,20.00
2019-02-15T14:19:16.582Z,23.27
2019-02-15T14:24:23.372Z,23.89
2019-02-15T14:29:27.691Z,24.00
2019-02-15T14:34:31.652Z,25.67
2019-02-15T14:39:38.470Z,23.00
2019-02-15T14:44:43.487Z,26.00
2019-02-15T14:49:51.844Z,23.62
2019-02-15T14:55:00.940Z,22.00
2019-02-15T15:00:11.809Z,24.78
2019-02-15T15:05:16.694Z,25.00
2019-02-15T15:10:25.825Z,26.33
2019-02-15T15:15:33.961Z,24.33
2019-02-15T15:20:43.721Z,26.00
2019-02-15T15:25:51.723Z,23.00
2019-02-15T15:30:59.059Z,25.25
2019-02-15T15:36:03.420Z,22.17
2019-02-15T15:41:09.019Z,25.25
2019-02-15T15:46:13.120Z,24.00
2019-02-15T15:51:21.419Z,26.12
2019-02-15T15:56:28.987Z,27.75
2019-02-15T16:01:38.167Z,25.37
2019-02-15T16:06:47.293Z,28.00
2019-02-15T16:11:52.235Z,32.25
2019-02-15T16:17:00.638Z,29.37
2019-02-15T16:22:04.265Z,29.00
2019-02-15T16:27:13.038Z,33.38
2019-02-15T16:32:22.374Z,33.00
2019-02-15T16:37:29.299Z,30.44
2019-02-15T16:42:36.136Z,34.88
2019-02-15T16:47:40.730Z,31.25
2019-02-15T16:52:49.146Z,35.75
2019-02-15T16:57:57.301Z,39.56
2019-02-15T17:03:06.501Z,37.50
2019-02-15T17:08:11.674Z,37.00
2019-02-15T17:13:19.028Z,38.33
2019-02-15T17:18:29.132Z,36.89
2019-02-15T17:23:37.621Z,38.63
2019-02-15T17:28:45.913Z,36.11
2019-02-15T17:33:50.853Z,35.71
2019-02-15T17:38:57.780Z,34.25
2019-02-15T17:44:07.647Z,36.22
2019-02-15T17:49:16.664Z,35.00
2019-02-15T17:54:23.231Z,34.38
2019-02-15T17:59:32.462Z,34.63
2019-02-15T18:04:38.143Z,40.75
2019-02-15T18:09:44.915Z,37.13
2019-02-15T18:14:47.995Z,35.00
2019-02-15T18:19:55.370Z,36.89
2019-02-15T18:25:03.416Z,34.75
2019-02-15T18:30:11.335Z,34.88
2019-02-15T18:35:18.470Z,35.11
2019-02-15T18:40:21.984Z,62.75
2019-02-15T18:45:29.934Z,73.82
2019-02-15T18:50:41.118Z,47.90
2019-02-15T18:55:45.550Z,36.75
2019-02-15T19:00:49.810Z,34.25
2019-02-15T19:05:57.508Z,35.00
2019-02-15T19:11:05.035Z,39.22
2019-02-15T19:16:09.940Z,37.00
2019-02-15T19:21:18.359Z,39.00
2019-02-15T19:26:26.661Z,41.22
2019-02-15T19:31:31.608Z,43.71
2019-02-15T19:36:42.523Z,49.30
2019-02-15T19:41:50.272Z,37.78
2019-02-15T19:46:57.182Z,37.44
2019-02-15T19:52:01.443Z,35.00
2019-02-15T19:57:06.538Z,37.25
2019-02-15T20:02:11.064Z,35.00
2019-02-15T20:07:15.358Z,31.00
2019-02-15T20:12:24.613Z,43.40
2019-02-15T20:17:34.654Z,38.69
2019-02-15T20:22:39.636Z,41.14
2019-02-15T20:27:46.170Z,41.00
2019-02-15T20:32:57.689Z,39.00
2019-02-15T20:38:05.996Z,43.44
2019-02-15T20:43:09.302Z,42.00
2019-02-15T20:48:16.643Z,40.00
2019-02-15T20:53:26.560Z,36.11
2019-02-15T20:58:35.811Z,38.00
2019-02-15T21:03:44.653Z,44.22
2019-02-15T21:08:55.567Z,39.89
2019-02-15T21:14:06.362Z,44.00
2019-02-15T21:19:12.118Z,45.00
2019-02-15T21:24:19.818Z,39.67
2019-02-15T21:29:25.321Z,44.00
2019-02-15T21:34:28.909Z,48.40
2019-02-15T21:39:40.214Z,48.90
2019-02-15T21:44:50.486Z,56.80
2019-02-15T21:49:56.282Z,55.00
2019-02-15T21:55:08.362Z,49.56
2019-02-15T22:00:20.300Z,50.44
2019-02-15T22:05:25.400Z,54.43
2019-02-15T22:10:33.159Z,46.67
2019-02-15T22:15:43.659Z,49.00
2019-02-15T22:20:53.711Z,47.89
2019-02-15T22:25:58.890Z,45.00
2019-02-15T22:31:02.422Z,45.00
2019-02-15T22:36:10.110Z,54.56
2019-02-15T22:41:20.131Z,49.78
2019-02-15T22:46:30.284Z,55.11
2019-02-15T22:51:39.210Z,56.60
2019-02-15T22:56:44.218Z,49.00
2019-02-15T23:01:49.998Z,56.75
2019-02-15T23:07:00.926Z,61.21
2019-02-15T23:12:12.474Z,56.80
2019-02-15T23:17:17.579Z,59.14
2019-02-15T23:22:29.263Z,61.00
2019-02-15T23:27:34.694Z,60.57
2019-02-15T23:32:46.312Z,57.64
2019-02-15T23:37:58.011Z,52.20
2019-02-15T23:43:06.187Z,54.00
2019-02-15T23:48:17.554Z,57.30
2019-02-15T23:53:28.853Z,62.93
2019-02-15T23:58:32.531Z,57.60
